map of MDE home
MDE - Airport
Location
City:  Medellín, Antioquia, Colombia
Near (Alt.):Rionegro, Rio Negro
Name:José María Córdova International Airport
ICAO:SKRG
IATA:MDE

Details
Type:Airport (Aerodrome, Airfield)
Use:International (customs port of entry)
Latitude:6°09'52"N (6.164444)
Longitude:75°25'23"W (-75.423055)
Elevation:7025 ft (2141 m)
Variation:6.75°W (WMM2015 magnetic declination)
-0.14° annual change
Runways:1
Longest:11483 × 148 ft (3500 × 45 m), paved

Time
Time Zone:UTC-5
Local Time:

Weather
METAR:SKRG 230200Z VRB02KT 9999 VCSH BKN008 BKN070 15/15 A3031 RMK VCSH SE/S

Related Locations
Nearby:
Farthest:TKG: 12358 mi / 19889 km
Bandar Lampung [Branti (Radin Inten Li)], LA, ID

Find:

   beyond  
but within

Other Information
Maps:
NOTAMs:
Links:
Sources:

  
  • flag of Colombia
  • flag of Antioquia
  • flag of Medellín
  

Airport Diagram

Airport diagram for MDE

Larger airport diagram (OBSOLETE) from NGA

Sectional Chart

Flight Planning
at skyvector.com

Satellite Image

Google Maps Satellite view

 

Copyright © 2004-2018 Karl L. Swartz. All rights reserved.
The Great Circle Mapper name and logo are trademarks of the Great Circle Mapper.
All other trademarks mentioned herein belong to their respective owners.
Please see credits for attibutions and further copyright information.

  Follow gcmap on Facebook Follow gcmap on Twitter Follow gcmap on Google+ GCmap on LinkedIn

hCard Microformat

Geo Microformat